Time;durP1;ratioP1;P1;durP2;ratioP2;P2;SDS_P1;SDS_P2;PMS_P1;PMS_P2;Temp;Humidity;BMP_temperature;BMP_pressure;BME280_temperature;BME280_humidity;BME280_pressure;Samples;Min_cycle;Max_cycle;Signal;HPM_P1;HPM_P2
2023/06/02 00:00:50;;;;;;;3.40;1.60;;;12.40;99.90;;;;;;5070653;28;20111;-54
2023/06/02 00:03:18;;;;;;;3.00;1.47;;;12.40;99.90;;;;;;5071024;28;20111;-52
2023/06/02 00:05:44;;;;;;;5.13;2.10;;;12.40;99.90;;;;;;5071002;28;20039;-53
2023/06/02 00:08:11;;;;;;;3.47;1.90;;;12.40;99.90;;;;;;5053236;28;20032;-54
2023/06/02 00:10:38;;;;;;;3.10;1.90;;;12.30;99.90;;;;;;5071071;28;20031;-49
2023/06/02 00:13:04;;;;;;;8.37;2.70;;;12.30;99.90;;;;;;5071019;28;20028;-52
2023/06/02 00:15:31;;;;;;;9.13;2.20;;;12.30;99.90;;;;;;5070827;28;20503;-54
2023/06/02 00:17:57;;;;;;;3.73;1.60;;;12.20;99.90;;;;;;5070759;28;20047;-53
2023/06/02 00:20:26;;;;;;;3.40;2.20;;;12.20;99.90;;;;;;5070426;28;20029;-53
2023/06/02 00:22:53;;;;;;;3.50;1.83;;;12.20;99.90;;;;;;5070605;28;20031;-53
2023/06/02 00:25:19;;;;;;;5.13;2.13;;;12.20;99.90;;;;;;5070698;28;20032;-50
2023/06/02 00:27:44;;;;;;;3.20;1.77;;;12.10;99.90;;;;;;5070797;28;20045;-52
2023/06/02 00:30:11;;;;;;;6.17;2.37;;;12.10;99.90;;;;;;5070378;28;20104;-53
2023/06/02 00:32:37;;;;;;;3.93;1.70;;;12.00;99.90;;;;;;5070462;28;20142;-53
2023/06/02 00:35:03;;;;;;;7.73;1.97;;;12.00;99.90;;;;;;5070654;28;20103;-52
2023/06/02 00:37:28;;;;;;;4.10;1.73;;;12.00;99.90;;;;;;5070618;28;20077;-51
2023/06/02 00:39:55;;;;;;;5.97;2.87;;;12.00;99.90;;;;;;5070795;28;20500;-53
2023/06/02 00:42:21;;;;;;;3.23;1.87;;;11.90;99.90;;;;;;5070235;28;20150;-51
2023/06/02 00:44:47;;;;;;;5.03;2.00;;;11.90;99.90;;;;;;5070259;28;20103;-53
2023/06/02 00:47:13;;;;;;;6.10;2.67;;;11.80;99.90;;;;;;5070437;28;20166;-49
2023/06/02 00:49:38;;;;;;;4.97;2.03;;;11.80;99.90;;;;;;5070808;28;20059;-53
2023/06/02 00:52:05;;;;;;;3.83;2.20;;;11.70;99.90;;;;;;5070514;28;20473;-52
2023/06/02 00:54:31;;;;;;;5.77;1.90;;;11.70;99.90;;;;;;5076916;28;20393;-50
2023/06/02 00:56:57;;;;;;;3.27;1.70;;;11.80;99.90;;;;;;5077230;28;20035;-50
2023/06/02 00:59:23;;;;;;;2.97;1.53;;;11.80;99.90;;;;;;5076921;28;20036;-52
2023/06/02 01:01:50;;;;;;;3.53;2.20;;;11.80;99.90;;;;;;5058655;28;20029;-52
2023/06/02 01:04:17;;;;;;;4.77;1.90;;;11.90;99.90;;;;;;5076866;28;20028;-48
2023/06/02 01:06:44;;;;;;;5.63;2.00;;;11.80;99.90;;;;;;5076764;28;20032;-52
2023/06/02 01:09:13;;;;;;;3.93;1.70;;;11.80;99.90;;;;;;5058928;28;20032;-51
2023/06/02 01:11:39;;;;;;;2.45;1.45;;;11.80;99.90;;;;;;5076560;28;20039;-49
2023/06/02 01:14:05;;;;;;;3.73;1.50;;;11.70;99.90;;;;;;5076668;28;20037;-50
2023/06/02 01:16:32;;;;;;;3.50;1.53;;;11.70;99.90;;;;;;5058559;28;20055;-53
2023/06/02 01:18:59;;;;;;;2.33;1.60;;;11.70;99.90;;;;;;5077068;28;20040;-54
2023/06/02 01:21:30;;;;;;;4.00;1.80;;;11.70;99.90;;;;;;5076608;28;20033;-52
2023/06/02 01:23:59;;;;;;;3.57;1.77;;;11.70;99.90;;;;;;5076797;28;20024;-52
2023/06/02 01:26:28;;;;;;;4.90;1.40;;;11.70;99.90;;;;;;5076616;28;20024;-54
2023/06/02 01:28:54;;;;;;;2.30;1.70;;;11.70;99.90;;;;;;5076756;28;20481;-54
2023/06/02 01:31:29;;;;;;;4.77;2.00;;;11.70;99.90;;;;;;5058470;28;20060;-52
2023/06/02 01:33:55;;;;;;;6.50;2.20;;;11.70;99.90;;;;;;5058862;28;20112;-51
2023/06/02 01:36:23;;;;;;;4.60;1.77;;;11.70;99.90;;;;;;5076474;28;20099;-49
2023/06/02 01:38:50;;;;;;;3.43;1.67;;;11.70;99.90;;;;;;5076736;28;20111;-51
2023/06/02 01:41:19;;;;;;;4.80;2.03;;;11.60;99.90;;;;;;5058668;28;20035;-52
2023/06/02 01:43:47;;;;;;;6.27;2.33;;;11.60;99.90;;;;;;5058351;28;20119;-49
2023/06/02 01:46:14;;;;;;;3.50;1.70;;;11.60;99.90;;;;;;5058650;28;20032;-53
2023/06/02 01:48:40;;;;;;;4.40;1.60;;;11.60;99.90;;;;;;5076616;28;20033;-53
2023/06/02 01:51:06;;;;;;;5.27;2.00;;;11.60;99.90;;;;;;5076291;28;20029;-50
2023/06/02 01:53:32;;;;;;;3.60;1.87;;;11.60;99.90;;;;;;5076574;28;20025;-53
2023/06/02 01:55:58;;;;;;;6.13;1.60;;;11.50;99.90;;;;;;5076199;28;20051;-54
2023/06/02 01:58:24;;;;;;;6.90;1.73;;;11.50;99.90;;;;;;5076256;28;20041;-52
2023/06/02 02:00:50;;;;;;;5.10;1.67;;;11.50;99.90;;;;;;5058480;28;20518;-51
2023/06/02 02:03:17;;;;;;;4.93;1.77;;;11.40;99.90;;;;;;5076400;28;20442;-53
2023/06/02 02:05:43;;;;;;;4.50;1.50;;;11.40;99.90;;;;;;5072306;28;20115;-50
2023/06/02 02:08:12;;;;;;;6.63;1.83;;;11.40;99.90;;;;;;5073268;28;20475;-53
2023/06/02 02:10:37;;;;;;;5.18;2.03;;;11.40;99.90;;;;;;5073039;28;20064;-48
2023/06/02 02:13:03;;;;;;;5.13;1.97;;;11.40;99.90;;;;;;5072922;28;20458;-52
2023/06/02 02:15:30;;;;;;;4.23;1.70;;;11.40;99.90;;;;;;5055013;28;20024;-53
2023/06/02 02:18:00;;;;;;;3.37;1.70;;;11.30;99.90;;;;;;5055144;28;20031;-52
2023/06/02 02:20:26;;;;;;;4.40;1.90;;;11.20;99.90;;;;;;5054952;28;20079;-50
2023/06/02 02:22:52;;;;;;;4.97;1.80;;;11.10;99.90;;;;;;5055103;28;20029;-52
2023/06/02 02:25:18;;;;;;;5.00;2.10;;;11.10;99.90;;;;;;5054854;28;20090;-53
2023/06/02 02:27:43;;;;;;;5.43;1.90;;;11.10;99.90;;;;;;5054908;28;20054;-53
2023/06/02 02:30:10;;;;;;;3.97;1.77;;;11.10;99.90;;;;;;5072958;28;20029;-50
2023/06/02 02:32:39;;;;;;;6.00;2.17;;;11.10;99.90;;;;;;5054865;28;20024;-53
2023/06/02 02:35:06;;;;;;;4.50;2.23;;;11.10;99.90;;;;;;5054761;28;20446;-49
2023/06/02 02:37:32;;;;;;;4.00;1.77;;;11.10;99.90;;;;;;5055289;28;20035;-52
2023/06/02 02:39:58;;;;;;;4.50;1.73;;;11.00;99.90;;;;;;5072909;28;20029;-48
2023/06/02 02:42:24;;;;;;;7.93;2.17;;;11.00;99.90;;;;;;5054772;28;20036;-52
2023/06/02 02:44:50;;;;;;;6.87;2.37;;;11.00;99.90;;;;;;5072836;28;20546;-52
2023/06/02 02:47:16;;;;;;;5.87;1.77;;;11.00;99.90;;;;;;5072740;28;20043;-50
2023/06/02 02:49:41;;;;;;;6.03;1.53;;;11.00;99.90;;;;;;5072591;28;20032;-53
2023/06/02 02:52:07;;;;;;;5.47;1.60;;;10.90;99.90;;;;;;5054547;28;20063;-54
2023/06/02 02:54:33;;;;;;;7.27;2.70;;;10.90;99.90;;;;;;5072343;28;20036;-52
2023/06/02 02:56:58;;;;;;;6.07;1.77;;;10.90;99.90;;;;;;5054378;28;20020;-52
2023/06/02 02:59:25;;;;;;;6.80;1.87;;;10.90;99.90;;;;;;5072598;28;20028;-53
2023/06/02 03:01:51;;;;;;;7.50;1.40;;;10.90;99.90;;;;;;5072253;28;20024;-54
2023/06/02 03:04:24;;;;;;;7.07;1.67;;;10.80;99.90;;;;;;5054433;28;20028;-53
2023/06/02 03:06:54;;;;;;;4.23;1.77;;;10.90;99.90;;;;;;5054591;28;20370;-54
2023/06/02 03:09:22;;;;;;;4.53;1.60;;;10.80;99.90;;;;;;5054206;28;20056;-52
2023/06/02 03:11:48;;;;;;;3.97;1.30;;;10.90;99.90;;;;;;5053913;28;20113;-53
2023/06/02 03:14:14;;;;;;;3.93;1.67;;;10.80;99.90;;;;;;5054111;28;20493;-49
2023/06/02 03:16:44;;;;;;;3.30;1.33;;;10.90;99.90;;;;;;5053796;28;20100;-49
2023/06/02 03:19:15;;;;;;;8.23;2.20;;;10.90;99.90;;;;;;5054155;28;20484;-50
2023/06/02 03:21:44;;;;;;;4.73;1.80;;;10.90;99.90;;;;;;5053996;28;20440;-51
2023/06/02 03:24:13;;;;;;;6.40;1.90;;;10.90;99.90;;;;;;5054021;28;20028;-49
2023/06/02 03:26:40;;;;;;;5.73;1.70;;;10.90;99.90;;;;;;5053682;28;20028;-50
2023/06/02 03:29:10;;;;;;;7.13;1.73;;;10.80;99.90;;;;;;5071752;28;20111;-50
2023/06/02 03:31:37;;;;;;;5.43;1.70;;;10.80;99.90;;;;;;5053605;28;20070;-48
2023/06/02 03:34:05;;;;;;;5.20;1.53;;;10.90;99.90;;;;;;5053574;28;20516;-50
2023/06/02 03:36:35;;;;;;;4.77;2.00;;;10.90;99.90;;;;;;5053512;28;20055;-51
2023/06/02 03:39:07;;;;;;;7.83;2.00;;;10.90;99.90;;;;;;5053701;28;20393;-49
2023/06/02 03:41:34;;;;;;;6.20;2.00;;;10.90;99.90;;;;;;5053270;28;20032;-49
2023/06/02 03:44:05;;;;;;;5.25;1.77;;;10.90;99.90;;;;;;5053730;28;20577;-49
2023/06/02 03:46:33;;;;;;;7.17;2.10;;;10.90;99.90;;;;;;5053181;28;20036;-51
2023/06/02 03:48:59;;;;;;;6.97;2.40;;;10.90;99.90;;;;;;5053432;28;20131;-48
2023/06/02 03:51:26;;;;;;;3.97;1.60;;;10.90;99.90;;;;;;5053139;28;20028;-50
2023/06/02 03:53:53;;;;;;;6.93;2.40;;;11.00;99.90;;;;;;5053311;28;20052;-49
2023/06/02 03:56:20;;;;;;;4.20;1.97;;;11.00;99.90;;;;;;5053055;28;20031;-50
2023/06/02 03:58:47;;;;;;;4.90;2.10;;;11.00;99.90;;;;;;5053360;28;20032;-49
2023/06/02 04:01:16;;;;;;;5.07;1.97;;;11.00;99.90;;;;;;5053065;28;20032;-49
2023/06/02 04:03:43;;;;;;;8.43;1.67;;;11.10;99.90;;;;;;5053234;28;20516;-51
2023/06/02 04:06:12;;;;;;;4.90;2.13;;;11.00;99.90;;;;;;5071231;28;20524;-50
2023/06/02 04:08:39;;;;;;;5.17;1.70;;;11.10;99.90;;;;;;5053000;28;20093;-49
2023/06/02 04:11:05;;;;;;;6.00;2.20;;;11.00;99.90;;;;;;5052787;28;20025;-49
2023/06/02 04:13:31;;;;;;;7.87;2.33;;;11.00;99.90;;;;;;5052887;28;20036;-49
2023/06/02 04:15:59;;;;;;;3.67;2.13;;;11.10;99.90;;;;;;5053079;28;20432;-50
2023/06/02 04:18:28;;;;;;;9.60;2.87;;;11.00;99.90;;;;;;5053003;28;20032;-50
2023/06/02 04:20:56;;;;;;;;;;;11.00;99.90;;;;;;5053310;28;20035;-49
2023/06/02 04:23:21;;;;;;;5.47;2.00;;;11.00;99.90;;;;;;5052885;28;19908;-49
2023/06/02 04:25:47;;;;;;;7.03;1.73;;;11.00;99.90;;;;;;5052850;28;20039;-52
2023/06/02 04:28:13;;;;;;;4.23;1.80;;;11.00;99.90;;;;;;5070571;28;20481;-50
2023/06/02 04:30:39;;;;;;;6.87;2.10;;;11.00;99.90;;;;;;5052661;28;20028;-49
2023/06/02 04:33:06;;;;;;;6.53;2.17;;;11.00;99.90;;;;;;5052732;28;20035;-48
2023/06/02 04:35:34;;;;;;;8.90;1.80;;;11.10;99.90;;;;;;5052685;28;20035;-49
2023/06/02 04:38:00;;;;;;;7.33;2.17;;;11.00;99.90;;;;;;5070775;28;20025;-48
2023/06/02 04:40:26;;;;;;;5.67;2.07;;;11.00;99.90;;;;;;5052335;28;20032;-48
2023/06/02 04:42:52;;;;;;;5.77;1.80;;;11.10;99.90;;;;;;5052500;28;20044;-48
2023/06/02 04:45:20;;;;;;;7.13;2.37;;;11.00;99.90;;;;;;5070672;28;20021;-48
2023/06/02 04:47:47;;;;;;;7.25;1.98;;;11.10;99.90;;;;;;5052695;28;20079;-48
2023/06/02 04:50:14;;;;;;;4.37;1.57;;;11.00;99.90;;;;;;5070358;28;20040;-49
2023/06/02 04:52:44;;;;;;;5.70;1.80;;;11.10;99.90;;;;;;5052507;28;20020;-49
2023/06/02 04:55:11;;;;;;;6.67;2.10;;;11.10;99.90;;;;;;5052263;28;20024;-51
2023/06/02 04:57:40;;;;;;;3.73;1.70;;;11.10;99.90;;;;;;5052698;28;20036;-49
2023/06/02 05:00:08;;;;;;;5.20;1.97;;;11.20;99.90;;;;;;5052414;28;20064;-48
2023/06/02 05:02:35;;;;;;;7.80;1.73;;;11.10;99.90;;;;;;5070486;28;20119;-49
2023/06/02 05:05:02;;;;;;;4.57;2.20;;;11.10;99.90;;;;;;5052742;28;20306;-48
2023/06/02 05:07:29;;;;;;;6.27;1.90;;;11.10;99.90;;;;;;5053183;28;20066;-48
2023/06/02 05:09:54;;;;;;;3.77;1.57;;;11.00;99.90;;;;;;5052849;28;20028;-49
2023/06/02 05:12:20;;;;;;;7.13;2.17;;;11.10;99.90;;;;;;5052795;28;20028;-49
2023/06/02 05:14:46;;;;;;;6.43;3.00;;;11.00;99.90;;;;;;5053141;28;20028;-48
2023/06/02 05:17:14;;;;;;;5.73;1.77;;;11.00;99.90;;;;;;5071233;28;20053;-48
2023/06/02 05:19:41;;;;;;;8.20;2.60;;;11.00;99.90;;;;;;5053099;28;20028;-48
2023/06/02 05:22:07;;;;;;;5.23;1.80;;;11.10;99.90;;;;;;5071130;28;20078;-50
2023/06/02 05:24:33;;;;;;;6.77;2.40;;;11.10;99.90;;;;;;5053902;28;20041;-52
2023/06/02 05:26:59;;;;;;;5.70;2.10;;;11.10;99.90;;;;;;5054294;28;20181;-49
2023/06/02 05:29:25;;;;;;;5.47;1.80;;;11.10;99.90;;;;;;5054930;28;20116;-51
2023/06/02 05:31:52;;;;;;;4.37;1.73;;;11.10;99.90;;;;;;5054259;28;20458;-49
2023/06/02 05:34:18;;;;;;;3.60;2.00;;;11.10;99.90;;;;;;5053859;28;20036;-49
2023/06/02 05:36:44;;;;;;;6.07;1.87;;;11.10;99.90;;;;;;5052010;28;20032;-48
2023/06/02 05:39:10;;;;;;;2.57;1.27;;;11.10;99.90;;;;;;5070082;28;20429;-48
2023/06/02 05:41:36;;;;;;;4.87;1.80;;;11.10;99.90;;;;;;5055725;28;20119;-49
2023/06/02 05:44:02;;;;;;;7.87;2.00;;;11.10;99.90;;;;;;5073915;28;20056;-50
2023/06/02 05:46:29;;;;;;;5.80;2.07;;;11.10;99.90;;;;;;5055610;28;20032;-49
2023/06/02 05:48:55;;;;;;;6.77;2.23;;;11.10;99.90;;;;;;5055781;28;20025;-49
2023/06/02 05:51:21;;;;;;;7.00;2.27;;;11.00;99.90;;;;;;5055413;28;20036;-50
2023/06/02 05:53:50;;;;;;;6.00;2.23;;;11.00;99.90;;;;;;5055715;28;20029;-49
2023/06/02 05:56:17;;;;;;;5.40;1.83;;;11.10;99.90;;;;;;5055435;28;20039;-49
2023/06/02 05:58:43;;;;;;;5.57;2.50;;;11.10;99.90;;;;;;5055659;28;20124;-51
2023/06/02 06:01:09;;;;;;;3.03;1.80;;;11.10;99.90;;;;;;5038867;28;20039;-50
2023/06/02 06:03:36;;;;;;;4.30;1.90;;;11.10;99.90;;;;;;5055458;28;20029;-48
2023/06/02 06:06:04;;;;;;;4.00;2.00;;;11.10;99.90;;;;;;5055260;28;20115;-49
2023/06/02 06:08:30;;;;;;;5.37;1.93;;;11.20;99.90;;;;;;5055348;28;20128;-49
2023/06/02 06:10:56;;;;;;;4.07;1.90;;;11.20;99.90;;;;;;5055172;28;20476;-49
2023/06/02 06:13:23;;;;;;;6.33;2.27;;;11.20;99.90;;;;;;5055199;28;20032;-49
2023/06/02 06:15:49;;;;;;;5.20;1.83;;;11.30;99.90;;;;;;5055263;28;20025;-50
2023/06/02 06:18:15;;;;;;;4.70;1.90;;;11.30;99.90;;;;;;5073325;28;20055;-48
2023/06/02 06:20:42;;;;;;;6.47;2.20;;;11.30;99.90;;;;;;5054940;28;20024;-48
2023/06/02 06:23:09;;;;;;;7.20;2.10;;;11.30;99.90;;;;;;5073312;28;20025;-51
2023/06/02 06:25:35;;;;;;;5.10;1.80;;;11.30;99.90;;;;;;5073036;28;20028;-49
2023/06/02 06:28:01;;;;;;;6.07;1.80;;;11.30;99.90;;;;;;5055103;28;20024;-49
2023/06/02 06:30:28;;;;;;;7.80;2.27;;;11.40;99.90;;;;;;5054609;28;20548;-49
2023/06/02 06:32:59;;;;;;;4.00;1.70;;;11.40;99.90;;;;;;5055082;28;20025;-49
2023/06/02 06:35:26;;;;;;;4.90;2.07;;;11.40;99.90;;;;;;5072467;28;20099;-48
2023/06/02 06:37:52;;;;;;;5.60;2.60;;;11.40;99.90;;;;;;5054771;28;20028;-48
2023/06/02 06:40:18;;;;;;;7.97;3.30;;;11.50;99.90;;;;;;5054674;28;20524;-48
2023/06/02 06:42:44;;;;;;;8.37;3.53;;;11.50;99.90;;;;;;5054883;28;20040;-49
2023/06/02 06:45:30;;;;;;;11.47;3.30;;;11.50;99.90;;;;;;5054558;28;20392;-50
2023/06/02 06:47:56;;;;;;;5.73;2.50;;;11.50;99.90;;;;;;5054654;28;20028;-51
2023/06/02 06:50:22;;;;;;;15.00;6.23;;;11.50;99.90;;;;;;5053942;28;20585;-51
2023/06/02 06:52:49;;;;;;;8.33;2.97;;;11.60;99.90;;;;;;5072498;28;20119;-49
2023/06/02 06:55:14;;;;;;;9.27;2.30;;;11.60;99.90;;;;;;5072370;28;20089;-48
2023/06/02 06:57:40;;;;;;;5.50;2.10;;;11.60;99.90;;;;;;5072505;28;20528;-48
2023/06/02 07:00:06;;;;;;;6.43;2.07;;;11.60;99.90;;;;;;5072233;28;20110;-53
2023/06/02 07:02:32;;;;;;;5.97;2.40;;;11.50;99.90;;;;;;5054073;28;20036;-49
2023/06/02 07:04:58;;;;;;;5.43;2.10;;;11.50;99.90;;;;;;5072143;28;20039;-48
2023/06/02 07:07:24;;;;;;;5.27;2.20;;;11.60;99.90;;;;;;5072326;28;20032;-51
2023/06/02 07:09:50;;;;;;;6.10;2.10;;;11.60;99.90;;;;;;5072205;28;20103;-49
2023/06/02 07:12:15;;;;;;;8.33;2.53;;;11.70;99.90;;;;;;5071955;28;20385;-52
2023/06/02 07:14:41;;;;;;;5.87;1.93;;;11.70;99.90;;;;;;5071933;28;20051;-48
2023/06/02 07:17:08;;;;;;;8.20;2.53;;;11.70;99.90;;;;;;5072019;28;20024;-50
2023/06/02 07:19:33;;;;;;;4.10;2.57;;;11.70;99.90;;;;;;5072247;28;20040;-53
2023/06/02 07:21:59;;;;;;;8.90;3.03;;;11.70;99.90;;;;;;5071742;28;20219;-48
2023/06/02 07:24:25;;;;;;;9.57;3.97;;;11.70;99.90;;;;;;5071824;28;20028;-53
2023/06/02 07:26:50;;;;;;;9.97;5.47;;;11.80;99.90;;;;;;5071992;28;20078;-49
2023/06/02 07:29:16;;;;;;;11.87;5.93;;;11.90;99.90;;;;;;5053952;28;20028;-51
2023/06/02 07:31:43;;;;;;;12.77;6.00;;;11.90;99.90;;;;;;5071437;28;20029;-48
2023/06/02 07:34:09;;;;;;;11.83;5.73;;;11.90;99.90;;;;;;5071735;28;20442;-49
2023/06/02 07:36:34;;;;;;;12.23;5.50;;;12.00;99.90;;;;;;5071418;28;20107;-49
2023/06/02 07:39:01;;;;;;;10.63;5.23;;;12.00;99.90;;;;;;5053898;28;20275;-49
2023/06/02 07:41:27;;;;;;;12.13;4.73;;;12.00;99.90;;;;;;5071481;28;20388;-49
2023/06/02 07:43:54;;;;;;;11.33;4.40;;;12.00;99.90;;;;;;5071523;28;20025;-54
2023/06/02 07:46:19;;;;;;;9.27;3.30;;;12.10;99.90;;;;;;5071371;28;20050;-51
2023/06/02 07:48:45;;;;;;;7.37;3.10;;;12.10;99.90;;;;;;5071502;28;20531;-49
2023/06/02 07:51:11;;;;;;;9.00;2.78;;;12.10;99.90;;;;;;5071389;28;20598;-51
2023/06/02 07:53:37;;;;;;;7.03;3.40;;;12.20;99.90;;;;;;5071427;28;20085;-51
2023/06/02 07:56:02;;;;;;;8.52;3.47;;;12.20;99.90;;;;;;5071305;28;20028;-48
2023/06/02 07:58:28;;;;;;;7.17;3.47;;;12.20;99.90;;;;;;5071256;28;20025;-48
2023/06/02 08:00:54;;;;;;;7.38;3.38;;;12.30;99.90;;;;;;5053201;28;20086;-48
2023/06/02 08:03:21;;;;;;;7.43;3.30;;;12.40;99.90;;;;;;5070416;28;20028;-48
2023/06/02 08:05:47;;;;;;;9.43;2.95;;;12.40;99.90;;;;;;5071025;28;20044;-49
2023/06/02 08:08:12;;;;;;;5.63;2.70;;;12.40;99.90;;;;;;5071302;28;20445;-48
2023/06/02 08:10:38;;;;;;;10.60;3.60;;;12.40;99.90;;;;;;5070734;28;20123;-49
2023/06/02 08:13:04;;;;;;;8.10;3.30;;;12.40;99.90;;;;;;5071015;28;20036;-50
2023/06/02 08:15:31;;;;;;;8.93;3.17;;;12.30;99.90;;;;;;5053086;28;20654;-51
2023/06/02 08:17:56;;;;;;;8.70;3.97;;;12.30;99.90;;;;;;5071131;28;20107;-48
2023/06/02 08:20:22;;;;;;;11.10;4.43;;;12.20;99.90;;;;;;5070899;28;20052;-48
2023/06/02 08:22:48;;;;;;;9.27;4.95;;;12.20;99.90;;;;;;5053091;28;20029;-50
2023/06/02 08:25:15;;;;;;;9.82;4.25;;;12.20;99.90;;;;;;5070752;28;20495;-51
2023/06/02 08:27:44;;;;;;;10.90;4.73;;;12.30;99.90;;;;;;5071073;28;20102;-49
2023/06/02 08:30:12;;;;;;;8.05;4.43;;;12.30;99.90;;;;;;5070714;28;20469;-49
2023/06/02 08:32:37;;;;;;;7.88;3.95;;;12.30;99.90;;;;;;5070961;28;20028;-47
2023/06/02 08:35:03;;;;;;;11.00;4.25;;;12.40;99.90;;;;;;5071010;28;20032;-50
2023/06/02 08:37:32;;;;;;;8.43;4.28;;;12.50;99.90;;;;;;5071197;28;20099;-49
2023/06/02 08:39:58;;;;;;;9.15;4.43;;;12.60;99.90;;;;;;5071119;28;20123;-49
2023/06/02 08:42:26;;;;;;;7.07;3.78;;;12.70;99.90;;;;;;5070694;28;20028;-51
2023/06/02 08:44:52;;;;;;;9.23;4.43;;;12.90;99.90;;;;;;5070648;28;20028;-49
2023/06/02 08:47:24;;;;;;;9.43;4.78;;;12.90;99.90;;;;;;5052886;28;20162;-49
2023/06/02 08:49:50;;;;;;;12.95;5.75;;;13.00;99.90;;;;;;5070838;28;20389;-49
2023/06/02 08:52:23;;;;;;;13.27;6.22;;;13.10;99.90;;;;;;5070381;28;20082;-52
2023/06/02 08:54:50;;;;;;;13.75;5.82;;;13.10;99.90;;;;;;5070443;28;20032;-48
2023/06/02 08:57:20;;;;;;;10.95;6.13;;;13.30;99.90;;;;;;5070820;28;20021;-48
2023/06/02 08:59:46;;;;;;;13.77;6.68;;;13.40;99.90;;;;;;5070505;28;20058;-50
2023/06/02 09:02:13;;;;;;;12.48;6.65;;;13.60;99.20;;;;;;5070293;28;20392;-48
2023/06/02 09:04:39;;;;;;;12.63;6.65;;;13.70;98.90;;;;;;5070267;28;20032;-54
2023/06/02 09:07:15;;;;;;;11.05;6.28;;;13.80;98.60;;;;;;5070469;28;20369;-53
2023/06/02 09:09:52;;;;;;;14.80;7.00;;;13.90;98.80;;;;;;5052206;28;20051;-48
2023/06/02 09:12:20;;;;;;;11.95;7.00;;;14.00;98.70;;;;;;5070339;28;20404;-49
2023/06/02 09:15:08;;;;;;;10.48;5.95;;;14.10;99.30;;;;;;5072878;28;20078;-52
2023/06/02 09:17:33;;;;;;;9.30;5.93;;;14.20;99.20;;;;;;5074420;28;20032;-51
2023/06/02 09:20:09;;;;;;;11.18;5.72;;;14.30;98.80;;;;;;5074065;28;20090;-52
2023/06/02 09:22:35;;;;;;;9.77;5.43;;;14.30;98.20;;;;;;5074363;28;20074;-52
2023/06/02 09:25:02;;;;;;;12.00;5.13;;;14.20;98.60;;;;;;5074218;28;20024;-52
2023/06/02 09:27:28;;;;;;;11.23;6.03;;;14.30;98.90;;;;;;5074254;28;20032;-51
2023/06/02 09:30:00;;;;;;;12.23;6.80;;;14.40;99.50;;;;;;5074098;28;20033;-52
2023/06/02 09:32:26;;;;;;;9.98;5.10;;;14.40;99.20;;;;;;5073764;28;20086;-51
2023/06/02 09:34:52;;;;;;;12.82;6.60;;;14.60;99.40;;;;;;5074157;28;20078;-51
2023/06/02 09:37:18;;;;;;;10.23;5.57;;;14.90;98.40;;;;;;5073939;28;20021;-48
2023/06/02 09:39:49;;;;;;;12.27;5.50;;;15.00;97.80;;;;;;5073959;28;20033;-53
2023/06/02 09:42:16;;;;;;;12.18;5.30;;;15.00;97.90;;;;;;5073588;28;20501;-48
2023/06/02 09:45:02;;;;;;;8.13;4.57;;;15.20;98.10;;;;;;5073753;28;20397;-53
2023/06/02 09:47:28;;;;;;;12.27;5.47;;;15.10;97.20;;;;;;5073667;28;20086;-52
2023/06/02 09:49:53;;;;;;;12.15;4.78;;;15.30;97.50;;;;;;5073732;28;20028;-50
2023/06/02 09:52:19;;;;;;;9.95;4.40;;;15.40;96.80;;;;;;5073437;28;20191;-52
2023/06/02 09:54:47;;;;;;;6.43;3.80;;;15.50;99.10;;;;;;5073511;28;20060;-50
2023/06/02 09:57:14;;;;;;;6.25;3.83;;;15.50;97.50;;;;;;5073661;28;20032;-52
2023/06/02 09:59:40;;;;;;;8.35;4.05;;;15.50;96.90;;;;;;5073793;28;20100;-50
2023/06/02 10:02:10;;;;;;;10.00;4.38;;;15.50;98.10;;;;;;5073179;28;20036;-53
2023/06/02 10:04:36;;;;;;;8.60;4.03;;;15.60;98.90;;;;;;5073488;28;20392;-53
2023/06/02 10:07:20;;;;;;;9.13;4.40;;;15.80;97.40;;;;;;5073462;28;20539;-48
2023/06/02 10:09:52;;;;;;;7.63;3.72;;;15.90;97.20;;;;;;5073375;28;20024;-52
2023/06/02 10:13:00;;;;;;;7.65;3.30;;;16.00;96.60;;;;;;5073021;28;20024;-53
2023/06/02 10:15:29;;;;;;;;;;;15.90;97.10;;;;;;5074207;28;20036;-51
2023/06/02 10:18:28;;;;;;;6.03;2.33;;;16.10;96.70;;;;;;5073276;28;19915;-48
2023/06/02 10:21:31;;;;;;;6.50;1.95;;;16.30;97.30;;;;;;5073013;28;20041;-53
2023/06/02 10:24:18;;;;;;;5.40;2.75;;;16.30;96.60;;;;;;5073350;28;20035;-52
2023/06/02 10:27:12;;;;;;;5.55;2.30;;;16.00;96.80;;;;;;5072256;28;20044;-49
2023/06/02 10:29:38;;;;;;;5.32;2.15;;;16.10;97.60;;;;;;5072906;28;20092;-49
2023/06/02 10:32:40;;;;;;;4.30;2.13;;;16.20;96.80;;;;;;5072661;28;20078;-51
2023/06/02 10:35:07;;;;;;;3.42;1.77;;;16.30;96.70;;;;;;5072651;28;20032;-52
2023/06/02 10:37:34;;;;;;;5.05;2.53;;;16.30;96.80;;;;;;5073179;28;20047;-48
2023/06/02 10:40:00;;;;;;;6.00;1.88;;;16.30;97.00;;;;;;5072958;28;20119;-49
2023/06/02 10:42:27;;;;;;;5.10;2.00;;;16.40;97.60;;;;;;5072634;28;20024;-48
2023/06/02 10:45:26;;;;;;;8.40;3.05;;;16.50;97.50;;;;;;5073048;28;20666;-49
2023/06/02 10:47:52;;;;;;;5.00;2.03;;;16.60;97.60;;;;;;5072532;28;20078;-48
2023/06/02 10:50:21;;;;;;;7.13;2.00;;;16.80;98.00;;;;;;5072460;28;20119;-48
2023/06/02 10:52:59;;;;;;;7.82;2.05;;;16.80;96.30;;;;;;5072756;28;20028;-48
2023/06/02 10:55:30;;;;;;;5.25;2.05;;;16.70;96.90;;;;;;5072327;28;20067;-48
2023/06/02 10:58:03;;;;;;;4.45;1.80;;;16.60;97.70;;;;;;5072551;28;20416;-51
2023/06/02 11:00:44;;;;;;;5.68;2.20;;;16.60;97.20;;;;;;5072363;28;20115;-51
2023/06/02 11:03:15;;;;;;;5.22;2.08;;;16.50;97.30;;;;;;5072404;28;20115;-51
2023/06/02 11:05:42;;;;;;;6.85;2.60;;;16.50;97.30;;;;;;5072319;28;20032;-48
2023/06/02 11:08:23;;;;;;;4.68;1.98;;;16.50;97.00;;;;;;5072673;28;20032;-49
2023/06/02 11:10:54;;;;;;;6.07;2.10;;;16.50;97.70;;;;;;5072321;28;20106;-50
2023/06/02 11:13:21;;;;;;;3.55;1.92;;;16.70;97.70;;;;;;5072765;28;20102;-48
2023/06/02 11:15:58;;;;;;;4.88;1.70;;;16.80;97.50;;;;;;5072506;28;20043;-48
2023/06/02 11:18:27;;;;;;;5.88;2.13;;;16.70;97.10;;;;;;5072620;28;20033;-48
2023/06/02 11:21:01;;;;;;;8.00;2.03;;;16.70;97.50;;;;;;5072797;28;20033;-48
2023/06/02 11:23:27;;;;;;;8.15;2.67;;;16.90;97.50;;;;;;5055451;28;20078;-47
2023/06/02 11:26:05;;;;;;;6.00;2.20;;;17.00;97.10;;;;;;5074188;28;20074;-49
2023/06/02 11:28:31;;;;;;;5.03;2.10;;;17.10;98.10;;;;;;5073970;28;20024;-51
2023/06/02 11:31:05;;;;;;;5.47;2.40;;;17.10;97.30;;;;;;5073355;28;20468;-49
2023/06/02 11:33:34;;;;;;;6.47;2.55;;;17.00;97.10;;;;;;5072568;28;20036;-49
2023/06/02 11:36:01;;;;;;;6.18;2.45;;;17.10;97.70;;;;;;5071546;28;20063;-49
2023/06/02 11:38:31;;;;;;;5.18;2.00;;;17.20;97.30;;;;;;5071840;28;20656;-51
2023/06/02 11:41:11;;;;;;;4.70;2.20;;;17.20;97.40;;;;;;5071436;28;20033;-49
2023/06/02 11:43:37;;;;;;;5.10;2.15;;;17.20;97.30;;;;;;5071444;28;20024;-48
2023/06/02 11:46:11;;;;;;;4.68;2.10;;;17.30;98.00;;;;;;5071339;28;20489;-50
2023/06/02 11:48:40;;;;;;;7.03;2.10;;;17.20;96.70;;;;;;5071690;28;20036;-50
2023/06/02 11:51:10;;;;;;;5.25;1.90;;;17.30;96.90;;;;;;5071417;28;20051;-51
2023/06/02 11:53:38;;;;;;;5.90;2.40;;;17.30;96.70;;;;;;5071728;28;20516;-50
2023/06/02 11:56:07;;;;;;;4.40;1.70;;;17.20;97.00;;;;;;5071478;28;20082;-53
2023/06/02 11:58:43;;;;;;;5.25;1.77;;;17.30;97.50;;;;;;5071906;28;20036;-52
2023/06/02 12:01:17;;;;;;;5.25;1.83;;;17.40;97.90;;;;;;5071647;28;20101;-49
2023/06/02 12:04:02;;;;;;;5.25;1.90;;;17.40;97.00;;;;;;5071777;28;20035;-53
2023/06/02 12:06:29;;;;;;;4.72;1.80;;;17.50;97.10;;;;;;5071262;28;20409;-50
2023/06/02 12:08:55;;;;;;;7.38;2.08;;;17.50;97.60;;;;;;5071361;28;20039;-50
2023/06/02 12:11:22;;;;;;;5.38;2.30;;;17.30;97.40;;;;;;5071330;28;20077;-49
2023/06/02 12:14:06;;;;;;;8.93;2.28;;;17.20;96.50;;;;;;5071168;28;20115;-50
2023/06/02 12:16:34;;;;;;;6.50;2.17;;;17.20;96.80;;;;;;5071104;28;20035;-51
2023/06/02 12:19:19;;;;;;;6.90;2.42;;;17.10;97.40;;;;;;5071061;28;20032;-50
2023/06/02 12:21:46;;;;;;;7.57;2.15;;;17.20;97.70;;;;;;5071023;28;20240;-50
2023/06/02 12:24:28;;;;;;;4.40;2.05;;;17.20;97.60;;;;;;5071408;28;20040;-50
2023/06/02 12:26:54;;;;;;;4.60;1.90;;;17.30;97.00;;;;;;5071012;28;20491;-50
2023/06/02 12:29:19;;;;;;;3.78;2.05;;;17.50;97.20;;;;;;5070794;28;20033;-49
2023/06/02 12:31:45;;;;;;;7.72;1.98;;;17.60;96.70;;;;;;5070519;28;20519;-49
2023/06/02 12:34:17;;;;;;;5.72;2.63;;;17.60;96.40;;;;;;5071009;28;20056;-52
2023/06/02 12:36:43;;;;;;;7.18;2.30;;;17.60;96.60;;;;;;5052672;28;20127;-48
2023/06/02 12:39:09;;;;;;;5.43;1.98;;;17.70;96.70;;;;;;5070916;28;20063;-52
2023/06/02 12:41:34;;;;;;;5.82;2.63;;;17.80;97.10;;;;;;5070531;28;20033;-47
2023/06/02 12:44:00;;;;;;;7.15;2.53;;;18.00;96.60;;;;;;5070602;28;20032;-51
2023/06/02 12:46:26;;;;;;;4.80;2.00;;;17.90;96.70;;;;;;5070529;28;20182;-48
2023/06/02 12:48:53;;;;;;;3.85;2.17;;;17.90;96.90;;;;;;5069922;28;20500;-52
2023/06/02 12:51:20;;;;;;;5.20;2.28;;;17.80;97.10;;;;;;5070227;28;20029;-50